Time;durP1;ratioP1;P1;durP2;ratioP2;P2;SDS_P1;SDS_P2;PMS_P1;PMS_P2;Temp;Humidity;BMP_temperature;BMP_pressure;BME280_temperature;BME280_humidity;BME280_pressure;Samples;Min_cycle;Max_cycle;Signal;HPM_P1;HPM_P2
2022/09/30 00:00:19;;;;;;;2.80;0.90;;;;;;;;;;5049900;28;20090;-73
2022/09/30 00:02:44;;;;;;;2.50;0.88;;;;;;;;;;5049364;28;20029;-73
2022/09/30 00:05:10;;;;;;;2.55;0.80;;;;;;;;;;5049919;28;20031;-75
2022/09/30 00:07:35;;;;;;;4.78;0.90;;;;;;;;;;5049730;28;20017;-74
2022/09/30 00:10:01;;;;;;;3.72;0.98;;;;;;;;;;5031786;28;20025;-73
2022/09/30 00:12:27;;;;;;;2.17;0.80;;;;;;;;;;5031725;28;20112;-73
2022/09/30 00:14:53;;;;;;;3.97;0.80;;;;;;;;;;5035884;28;20180;-72
2022/09/30 00:17:18;;;;;;;2.92;0.77;;;;;;;;;;5035981;28;20033;-73
2022/09/30 00:19:43;;;;;;;3.15;0.80;;;;;;;;;;5054080;28;20025;-73
2022/09/30 00:22:09;;;;;;;2.47;0.60;;;;;;;;;;5053504;28;20033;-72
2022/09/30 00:24:35;;;;;;;4.75;0.93;;;;;;;;;;5053514;28;20083;-73
2022/09/30 00:27:00;;;;;;;2.53;0.77;;;;;;;;;;5035725;28;20654;-72
2022/09/30 00:29:25;;;;;;;3.08;0.88;;;;;;;;;;5053345;28;20052;-72
2022/09/30 00:31:51;;;;;;;3.55;1.13;;;;;;;;;;5053682;28;20100;-72
2022/09/30 00:34:18;;;;;;;3.80;0.90;;;;;;;;;;5053153;28;20107;-72
2022/09/30 00:36:51;;;;;;;3.78;1.00;;;;;;;;;;5053749;28;20029;-72
2022/09/30 00:39:17;;;;;;;3.25;0.85;;;;;;;;;;5035135;28;20036;-72
2022/09/30 00:41:45;;;;;;;8.30;1.02;;;;;;;;;;5053319;28;20045;-75
2022/09/30 00:44:49;;;;;;;1.90;0.68;;;;;;;;;;5052916;28;20025;-76
2022/09/30 00:47:42;;;;;;;4.50;0.80;;;;;;;;;;5035201;28;20020;-74
2022/09/30 00:50:14;;;;;;;3.30;0.75;;;;;;;;;;5053011;28;20508;-74
2022/09/30 00:52:42;;;;;;;4.18;0.80;;;;;;;;;;5053189;28;20029;-75
2022/09/30 00:55:15;;;;;;;4.03;0.75;;;;;;;;;;5053176;28;20025;-76
2022/09/30 00:57:41;;;;;;;6.72;0.93;;;;;;;;;;5053329;28;20035;-77
2022/09/30 01:00:07;;;;;;;2.70;0.80;;;;;;;;;;5052968;28;20626;-76
2022/09/30 01:02:32;;;;;;;4.75;0.98;;;;;;;;;;5052575;28;20464;-76
2022/09/30 01:04:58;;;;;;;5.03;0.95;;;;;;;;;;5052655;28;20025;-76
2022/09/30 01:07:24;;;;;;;4.78;1.15;;;;;;;;;;5053076;28;20021;-76
2022/09/30 01:09:50;;;;;;;2.25;0.70;;;;;;;;;;5052877;28;20392;-76
2022/09/30 01:12:19;;;;;;;3.13;0.75;;;;;;;;;;5053059;28;20036;-77
2022/09/30 01:14:46;;;;;;;3.92;0.75;;;;;;;;;;5052717;28;20017;-76
2022/09/30 01:17:18;;;;;;;4.60;0.90;;;;;;;;;;5052531;28;20547;-75
2022/09/30 01:20:05;;;;;;;5.00;0.98;;;;;;;;;;5052309;28;20032;-76
2022/09/30 01:22:30;;;;;;;6.85;0.98;;;;;;;;;;5052378;28;20476;-76
2022/09/30 01:25:04;;;;;;;2.80;0.82;;;;;;;;;;5051672;28;20021;-73
2022/09/30 01:27:39;;;;;;;4.30;0.80;;;;;;;;;;5052711;28;20023;-73
2022/09/30 01:30:19;;;;;;;7.50;0.90;;;;;;;;;;5052385;28;20045;-73
2022/09/30 01:32:57;;;;;;;5.53;0.68;;;;;;;;;;5052313;28;20021;-74
2022/09/30 01:35:41;;;;;;;2.85;0.90;;;;;;;;;;5052036;28;20078;-73
2022/09/30 01:38:29;;;;;;;3.63;1.10;;;;;;;;;;5052178;28;20074;-75
2022/09/30 01:41:18;;;;;;;4.82;1.10;;;;;;;;;;5051919;28;20059;-73
2022/09/30 01:43:46;;;;;;;4.47;1.10;;;;;;;;;;5005273;28;20077;-74
2022/09/30 01:46:20;;;;;;;1.48;1.00;;;;;;;;;;5051996;28;20029;-73
2022/09/30 01:48:45;;;;;;;4.30;1.05;;;;;;;;;;5052084;28;20021;-73
2022/09/30 01:51:22;;;;;;;5.28;1.10;;;;;;;;;;5052072;28;20078;-75
2022/09/30 01:54:37;;;;;;;3.25;1.02;;;;;;;;;;5051673;28;20028;-76
2022/09/30 01:57:09;;;;;;;4.93;0.82;;;;;;;;;;5044254;28;20122;-78
2022/09/30 01:59:42;;;;;;;5.30;0.90;;;;;;;;;;5051921;28;20025;-77
2022/09/30 02:02:20;;;;;;;3.97;0.80;;;;;;;;;;5051879;28;20032;-77
2022/09/30 02:05:03;;;;;;;2.75;0.70;;;;;;;;;;5051561;28;20108;-77
2022/09/30 02:07:36;;;;;;;4.38;0.70;;;;;;;;;;5051829;28;20063;-78
2022/09/30 02:10:08;;;;;;;4.07;0.70;;;;;;;;;;5051579;28;20028;-77
2022/09/30 02:12:41;;;;;;;2.58;1.00;;;;;;;;;;5051625;28;20056;-74
2022/09/30 02:15:12;;;;;;;4.00;0.75;;;;;;;;;;5051311;28;20021;-77
2022/09/30 02:17:45;;;;;;;2.63;0.80;;;;;;;;;;5051685;28;20029;-77
2022/09/30 02:20:21;;;;;;;3.90;0.80;;;;;;;;;;5051311;28;20025;-77
2022/09/30 02:22:49;;;;;;;4.13;0.90;;;;;;;;;;5051481;28;20060;-77
2022/09/30 02:25:32;;;;;;;3.97;0.70;;;;;;;;;;5051322;28;20020;-75
2022/09/30 02:28:04;;;;;;;3.78;0.80;;;;;;;;;;5051346;28;20029;-73
2022/09/30 02:30:31;;;;;;;5.95;0.77;;;;;;;;;;5051005;28;20047;-77
2022/09/30 02:33:00;;;;;;;3.33;0.73;;;;;;;;;;5051223;28;20484;-73
2022/09/30 02:35:32;;;;;;;3.20;0.95;;;;;;;;;;5051043;28;20075;-77
2022/09/30 02:38:17;;;;;;;4.47;0.80;;;;;;;;;;5051540;28;20025;-77
2022/09/30 02:40:51;;;;;;;2.95;0.70;;;;;;;;;;5050654;28;20049;-73
2022/09/30 02:43:19;;;;;;;3.83;0.70;;;;;;;;;;5051011;28;20037;-76
2022/09/30 02:46:09;;;;;;;6.38;0.70;;;;;;;;;;5050897;28;20024;-75
2022/09/30 02:48:53;;;;;;;1.95;0.63;;;;;;;;;;5051022;28;20047;-76
2022/09/30 02:51:30;;;;;;;2.60;0.60;;;;;;;;;;5050866;28;20033;-74
2022/09/30 02:54:18;;;;;;;5.63;0.85;;;;;;;;;;5032981;28;20032;-74
2022/09/30 02:56:53;;;;;;;1.88;0.63;;;;;;;;;;5050700;28;20115;-78
2022/09/30 02:59:20;;;;;;;1.63;0.52;;;;;;;;;;5032863;28;20021;-76
2022/09/30 03:01:45;;;;;;;3.33;0.68;;;;;;;;;;5032554;28;20173;-74
2022/09/30 03:04:15;;;;;;;3.25;0.70;;;;;;;;;;5050550;28;20029;-75
2022/09/30 03:06:40;;;;;;;2.65;0.60;;;;;;;;;;5050565;28;20028;-75
2022/09/30 03:09:07;;;;;;;5.32;0.80;;;;;;;;;;5050723;28;20017;-75
2022/09/30 03:11:37;;;;;;;1.98;0.60;;;;;;;;;;5050674;28;20155;-74
2022/09/30 03:14:11;;;;;;;4.35;0.95;;;;;;;;;;5050616;28;20024;-77
2022/09/30 03:17:08;;;;;;;3.80;0.70;;;;;;;;;;5050256;28;20032;-73
2022/09/30 03:19:52;;;;;;;2.80;1.00;;;;;;;;;;5050457;28;20024;-76
2022/09/30 03:22:55;;;;;;;4.68;0.90;;;;;;;;;;5050247;28;20033;-72
2022/09/30 03:25:31;;;;;;;3.03;0.68;;;;;;;;;;5050096;28;20068;-76
2022/09/30 03:28:20;;;;;;;2.50;0.73;;;;;;;;;;5050420;28;20025;-72
2022/09/30 03:31:07;;;;;;;4.25;0.70;;;;;;;;;;5050033;28;20029;-76
2022/09/30 03:33:39;;;;;;;2.50;0.68;;;;;;;;;;5050141;28;20029;-74
2022/09/30 03:36:08;;;;;;;2.75;0.70;;;;;;;;;;5050011;28;20498;-75
2022/09/30 03:38:42;;;;;;;6.50;1.00;;;;;;;;;;5032305;28;20025;-74
2022/09/30 03:41:32;;;;;;;5.20;1.00;;;;;;;;;;5031624;28;20547;-74
2022/09/30 03:44:01;;;;;;;3.30;0.93;;;;;;;;;;5049928;28;20029;-73
2022/09/30 03:46:34;;;;;;;4.47;0.80;;;;;;;;;;5049746;28;20040;-74
2022/09/30 03:49:03;;;;;;;3.83;0.68;;;;;;;;;;5049812;28;20024;-74
2022/09/30 03:51:30;;;;;;;2.60;0.88;;;;;;;;;;5049739;28;20504;-73
2022/09/30 03:53:57;;;;;;;3.13;0.70;;;;;;;;;;5049948;28;20021;-74
2022/09/30 03:56:28;;;;;;;3.85;0.80;;;;;;;;;;5049656;28;20468;-74
2022/09/30 03:58:54;;;;;;;6.07;0.90;;;;;;;;;;5049946;28;20029;-74
2022/09/30 04:01:20;;;;;;;2.90;0.68;;;;;;;;;;5049603;28;20025;-77
2022/09/30 04:03:47;;;;;;;5.72;0.70;;;;;;;;;;5049999;28;20078;-75
2022/09/30 04:06:13;;;;;;;4.60;0.70;;;;;;;;;;5049766;28;20017;-77
2022/09/30 04:08:39;;;;;;;2.85;0.77;;;;;;;;;;5049887;28;20080;-76
2022/09/30 04:11:04;;;;;;;4.57;1.00;;;;;;;;;;5049749;28;20456;-75
2022/09/30 04:13:31;;;;;;;3.00;1.00;;;;;;;;;;5049666;28;20017;-78
2022/09/30 04:15:56;;;;;;;4.70;0.85;;;;;;;;;;5049571;28;20082;-75
2022/09/30 04:18:21;;;;;;;6.00;0.93;;;;;;;;;;5050102;28;20025;-75
2022/09/30 04:20:47;;;;;;;2.90;0.70;;;;;;;;;;5049705;28;20067;-74
2022/09/30 04:23:12;;;;;;;4.75;1.00;;;;;;;;;;5049934;28;20029;-76
2022/09/30 04:25:38;;;;;;;6.68;0.93;;;;;;;;;;5049442;28;20025;-73
2022/09/30 04:28:03;;;;;;;4.20;0.90;;;;;;;;;;5049719;28;20025;-77
2022/09/30 04:30:28;;;;;;;5.00;0.90;;;;;;;;;;5049544;28;20040;-74
2022/09/30 04:32:54;;;;;;;4.00;1.08;;;;;;;;;;5049368;28;20013;-75
2022/09/30 04:35:19;;;;;;;4.25;1.10;;;;;;;;;;5049393;28;20033;-75
2022/09/30 04:37:46;;;;;;;6.43;1.17;;;;;;;;;;5049588;28;20032;-75
2022/09/30 04:40:13;;;;;;;6.13;1.20;;;;;;;;;;5049437;28;20041;-74
2022/09/30 04:42:39;;;;;;;4.75;1.20;;;;;;;;;;5049407;28;20106;-79
2022/09/30 04:45:06;;;;;;;4.93;1.23;;;;;;;;;;5049558;28;20408;-75
2022/09/30 04:47:31;;;;;;;3.30;0.98;;;;;;;;;;5049355;28;20052;-74
2022/09/30 04:49:57;;;;;;;5.97;1.10;;;;;;;;;;5049464;28;20481;-74
2022/09/30 04:52:22;;;;;;;2.03;1.00;;;;;;;;;;5049208;28;20029;-73
2022/09/30 04:54:48;;;;;;;4.57;1.20;;;;;;;;;;5049509;28;20029;-73
2022/09/30 04:57:13;;;;;;;5.40;1.40;;;;;;;;;;5049388;28;20025;-73
2022/09/30 04:59:39;;;;;;;8.85;1.17;;;;;;;;;;5050218;28;20032;-74
2022/09/30 05:02:05;;;;;;;6.22;1.48;;;;;;;;;;5052636;28;20381;-73
2022/09/30 05:04:32;;;;;;;5.00;1.25;;;;;;;;;;5052853;28;20033;-76
2022/09/30 05:06:58;;;;;;;4.85;1.30;;;;;;;;;;5052707;28;20025;-76
2022/09/30 05:09:24;;;;;;;5.13;1.38;;;;;;;;;;5052949;28;20065;-75
2022/09/30 05:11:49;;;;;;;3.30;1.30;;;;;;;;;;5052719;28;20623;-74
2022/09/30 05:14:14;;;;;;;3.25;1.10;;;;;;;;;;5052754;28;20029;-75
2022/09/30 05:16:40;;;;;;;5.43;1.30;;;;;;;;;;5052525;28;20027;-75
2022/09/30 05:19:05;;;;;;;8.00;1.70;;;;;;;;;;5052844;28;20032;-76
2022/09/30 05:21:30;;;;;;;5.60;1.35;;;;;;;;;;5052380;28;20071;-74
2022/09/30 05:23:57;;;;;;;6.88;1.60;;;;;;;;;;5052522;28;20032;-74
2022/09/30 05:26:22;;;;;;;2.83;1.27;;;;;;;;;;5052327;28;20029;-73
2022/09/30 05:28:47;;;;;;;3.70;1.40;;;;;;;;;;5034805;28;20021;-76
2022/09/30 05:31:13;;;;;;;5.00;1.30;;;;;;;;;;5052441;28;20093;-74
2022/09/30 05:33:39;;;;;;;5.32;1.35;;;;;;;;;;5052352;28;20469;-77
2022/09/30 05:36:06;;;;;;;5.43;1.17;;;;;;;;;;5052346;28;20062;-75
2022/09/30 05:38:32;;;;;;;6.45;1.40;;;;;;;;;;5034076;28;20412;-76
2022/09/30 05:40:58;;;;;;;6.10;1.25;;;;;;;;;;5051902;28;20048;-77
2022/09/30 05:43:23;;;;;;;3.78;1.13;;;;;;;;;;5052009;28;20049;-75
2022/09/30 05:45:56;;;;;;;5.78;1.42;;;;;;;;;;5052120;28;20036;-74
2022/09/30 05:48:22;;;;;;;4.07;1.20;;;;;;;;;;5051834;28;20140;-76
2022/09/30 05:50:49;;;;;;;2.20;1.00;;;;;;;;;;5052329;28;20037;-76
2022/09/30 05:53:17;;;;;;;3.95;1.05;;;;;;;;;;5051872;28;20043;-74
2022/09/30 05:55:46;;;;;;;3.13;1.10;;;;;;;;;;5051825;28;20025;-74
2022/09/30 05:58:12;;;;;;;2.63;1.25;;;;;;;;;;5051666;28;20021;-73
2022/09/30 06:00:41;;;;;;;5.65;1.20;;;;;;;;;;5051909;28;20024;-74
2022/09/30 06:03:07;;;;;;;5.97;1.17;;;;;;;;;;5051690;28;20079;-73
2022/09/30 06:05:35;;;;;;;3.97;1.17;;;;;;;;;;5051760;28;20548;-76
2022/09/30 06:08:01;;;;;;;4.47;1.00;;;;;;;;;;5051806;28;20400;-77
2022/09/30 06:10:27;;;;;;;3.08;1.10;;;;;;;;;;5051580;28;20067;-75
2022/09/30 06:12:52;;;;;;;4.55;1.27;;;;;;;;;;5051517;28;20563;-77
2022/09/30 06:15:18;;;;;;;1.98;1.00;;;;;;;;;;5051447;28;20053;-78
2022/09/30 06:17:43;;;;;;;2.88;1.00;;;;;;;;;;5051257;28;20120;-76
2022/09/30 06:20:09;;;;;;;3.30;1.17;;;;;;;;;;5051509;28;20044;-76
2022/09/30 06:22:35;;;;;;;6.18;1.30;;;;;;;;;;5051219;28;20116;-75
2022/09/30 06:25:03;;;;;;;9.98;1.30;;;;;;;;;;5051512;28;20174;-76
2022/09/30 06:27:28;;;;;;;4.03;1.25;;;;;;;;;;5051087;28;20068;-75
2022/09/30 06:29:54;;;;;;;5.13;1.30;;;;;;;;;;5051697;28;20061;-74
2022/09/30 06:32:19;;;;;;;3.88;1.27;;;;;;;;;;5050923;28;20036;-74
2022/09/30 06:34:45;;;;;;;3.70;1.30;;;;;;;;;;5050954;28;20028;-74
2022/09/30 06:37:12;;;;;;;3.97;1.30;;;;;;;;;;5050892;28;20039;-75
2022/09/30 06:39:38;;;;;;;1.98;0.98;;;;;;;;;;5051285;28;20504;-74
2022/09/30 06:42:03;;;;;;;3.85;1.35;;;;;;;;;;5050948;28;20056;-73
2022/09/30 06:44:29;;;;;;;4.22;1.10;;;;;;;;;;5050736;28;20040;-75
2022/09/30 06:46:54;;;;;;;2.70;1.23;;;;;;;;;;5050937;28;20017;-75
2022/09/30 06:49:20;;;;;;;3.30;1.40;;;;;;;;;;5050642;28;20079;-74
2022/09/30 06:51:45;;;;;;;5.22;1.23;;;;;;;;;;5050883;28;20032;-76
2022/09/30 06:54:11;;;;;;;4.65;1.30;;;;;;;;;;5050751;28;20025;-74
2022/09/30 06:56:36;;;;;;;6.05;1.42;;;;;;;;;;5050884;28;20469;-74
2022/09/30 06:59:01;;;;;;;7.50;1.52;;;;;;;;;;5032822;28;20051;-74
2022/09/30 07:01:28;;;;;;;4.03;1.25;;;;;;;;;;5032808;28;20527;-75
2022/09/30 07:03:56;;;;;;;3.85;1.58;;;;;;;;;;5050651;28;20068;-74
2022/09/30 07:06:23;;;;;;;3.80;1.30;;;;;;;;;;5050402;28;20028;-73
2022/09/30 07:08:48;;;;;;;2.70;1.30;;;;;;;;;;5050459;28;20093;-73
2022/09/30 07:11:14;;;;;;;3.55;1.10;;;;;;;;;;5050519;28;20469;-73
2022/09/30 07:13:42;;;;;;;2.25;1.20;;;;;;;;;;5050487;28;20068;-73
2022/09/30 07:16:12;;;;;;;2.65;1.02;;;;;;;;;;5050567;28;20041;-73
2022/09/30 07:18:38;;;;;;;5.00;1.57;;;;;;;;;;5050183;28;20032;-73
2022/09/30 07:21:04;;;;;;;4.55;1.30;;;;;;;;;;5050681;28;20539;-73
2022/09/30 07:23:30;;;;;;;5.15;1.58;;;;;;;;;;5049398;28;20029;-74
2022/09/30 07:26:03;;;;;;;5.38;1.42;;;;;;;;;;5032078;28;20682;-73
2022/09/30 07:28:32;;;;;;;4.68;1.30;;;;;;;;;;5050186;28;20028;-74
2022/09/30 07:31:02;;;;;;;2.80;1.10;;;;;;;;;;5050490;28;20021;-73
2022/09/30 07:33:30;;;;;;;4.07;1.20;;;;;;;;;;5050070;28;20021;-74
2022/09/30 07:35:56;;;;;;;4.65;0.90;;;;;;;;;;5050553;28;20036;-74
2022/09/30 07:38:24;;;;;;;6.30;1.23;;;;;;;;;;5050018;28;20029;-73
2022/09/30 07:41:07;;;;;;;2.90;1.08;;;;;;;;;;5050012;28;20041;-75
2022/09/30 07:43:36;;;;;;;2.95;1.02;;;;;;;;;;5049645;28;20114;-74
2022/09/30 07:46:07;;;;;;;4.65;1.20;;;;;;;;;;5049572;28;20099;-75
2022/09/30 07:48:43;;;;;;;3.65;1.02;;;;;;;;;;5049661;28;20113;-75
2022/09/30 07:51:30;;;;;;;3.92;0.93;;;;;;;;;;5050080;28;20040;-76
2022/09/30 07:54:04;;;;;;;3.03;1.10;;;;;;;;;;5049860;28;20029;-76
2022/09/30 07:56:30;;;;;;;3.97;1.00;;;;;;;;;;5049821;28;20032;-77
2022/09/30 07:58:58;;;;;;;4.00;1.08;;;;;;;;;;5049801;28;20029;-78
2022/09/30 08:01:25;;;;;;;3.10;0.85;;;;;;;;;;5049612;28;20555;-77
2022/09/30 08:03:57;;;;;;;4.45;1.10;;;;;;;;;;5049595;28;20026;-77
2022/09/30 08:06:24;;;;;;;3.78;1.10;;;;;;;;;;5049749;28;20079;-78
2022/09/30 08:08:52;;;;;;;4.35;1.25;;;;;;;;;;5049973;28;20029;-77
2022/09/30 08:11:17;;;;;;;3.75;0.95;;;;;;;;;;5050043;28;20028;-78
2022/09/30 08:13:43;;;;;;;4.35;1.00;;;;;;;;;;5049617;28;20094;-74
2022/09/30 08:16:08;;;;;;;4.45;1.00;;;;;;;;;;5049764;28;20032;-74
2022/09/30 08:18:34;;;;;;;3.13;1.10;;;;;;;;;;5049359;28;20033;-75
2022/09/30 08:21:05;;;;;;;3.35;1.00;;;;;;;;;;5031665;28;20040;-75
2022/09/30 08:23:31;;;;;;;4.43;1.10;;;;;;;;;;5049589;28;20033;-76
2022/09/30 08:26:15;;;;;;;3.45;1.10;;;;;;;;;;5049857;28;20504;-77
2022/09/30 08:28:41;;;;;;;4.00;1.10;;;;;;;;;;5049415;28;20035;-74
2022/09/30 08:31:10;;;;;;;5.10;1.85;;;;;;;;;;5049732;28;20062;-75
2022/09/30 08:33:35;;;;;;;5.00;1.30;;;;;;;;;;5049545;28;20055;-76
2022/09/30 08:36:18;;;;;;;4.57;1.15;;;;;;;;;;5053200;28;20471;-77
2022/09/30 08:38:44;;;;;;;2.63;1.30;;;;;;;;;;5053340;28;20029;-76
2022/09/30 08:41:34;;;;;;;3.05;1.10;;;;;;;;;;5053061;28;20059;-75
2022/09/30 08:44:36;;;;;;;5.43;1.20;;;;;;;;;;5053649;28;20283;-74
2022/09/30 08:47:29;;;;;;;4.38;1.30;;;;;;;;;;5053419;28;20040;-74
2022/09/30 08:50:13;;;;;;;3.38;1.08;;;;;;;;;;5053181;28;20025;-75
2022/09/30 08:52:43;;;;;;;3.92;1.20;;;;;;;;;;5053280;28;20404;-75
2022/09/30 08:55:21;;;;;;;3.05;1.10;;;;;;;;;;5053010;28;20074;-75
2022/09/30 08:57:47;;;;;;;5.93;1.27;;;;;;;;;;5035304;28;20369;-73
2022/09/30 09:00:16;;;;;;;4.32;1.25;;;;;;;;;;5052879;28;20036;-77
2022/09/30 09:02:56;;;;;;;2.90;1.30;;;;;;;;;;5053172;28;20065;-75
2022/09/30 09:05:59;;;;;;;3.90;1.40;;;;;;;;;;5052765;28;20044;-77
2022/09/30 09:08:48;;;;;;;3.30;1.20;;;;;;;;;;5053176;28;20033;-76
2022/09/30 09:11:39;;;;;;;5.22;1.40;;;;;;;;;;5053252;28;20101;-77
2022/09/30 09:14:19;;;;;;;4.80;1.30;;;;;;;;;;5052777;28;20048;-79
2022/09/30 09:16:52;;;;;;;3.90;1.30;;;;;;;;;;5052660;28;20108;-77
2022/09/30 09:19:25;;;;;;;5.28;1.20;;;;;;;;;;5052611;28;20083;-77
2022/09/30 09:21:56;;;;;;;3.50;1.48;;;;;;;;;;5052911;28;20036;-74
2022/09/30 09:24:23;;;;;;;4.40;1.33;;;;;;;;;;5052309;28;20059;-75
2022/09/30 09:26:53;;;;;;;6.28;1.38;;;;;;;;;;5052428;28;20017;-77
2022/09/30 09:29:40;;;;;;;3.47;1.57;;;;;;;;;;5052588;28;20036;-77
2022/09/30 09:32:13;;;;;;;5.82;1.50;;;;;;;;;;5052337;28;20066;-76
2022/09/30 09:34:40;;;;;;;5.53;1.30;;;;;;;;;;5052395;28;20032;-78
2022/09/30 09:37:11;;;;;;;6.78;1.50;;;;;;;;;;5052624;28;20342;-76
2022/09/30 09:39:46;;;;;;;4.72;1.30;;;;;;;;;;5051973;28;20052;-75
2022/09/30 09:42:32;;;;;;;2.97;1.40;;;;;;;;;;5052561;28;20104;-74
2022/09/30 09:45:06;;;;;;;3.20;1.20;;;;;;;;;;5051921;28;20033;-78
2022/09/30 09:47:32;;;;;;;2.28;1.10;;;;;;;;;;5033804;28;20477;-78
2022/09/30 09:50:01;;;;;;;5.10;1.40;;;;;;;;;;5052038;28;20121;-78
2022/09/30 09:52:54;;;;;;;3.35;1.17;;;;;;;;;;5034492;28;20032;-77
2022/09/30 09:55:21;;;;;;;3.55;1.25;;;;;;;;;;5052007;28;20031;-78
2022/09/30 09:57:47;;;;;;;3.58;1.20;;;;;;;;;;5052316;28;20100;-74
2022/09/30 10:03:22;;;;;;;3.80;1.10;;;;;;;;;;5051904;28;20055;-76
2022/09/30 10:06:04;;;;;;;3.33;1.27;;;;;;;;;;5051538;28;20526;-74
2022/09/30 10:08:32;;;;;;;4.40;1.35;;;;;;;;;;5052021;28;20108;-73
2022/09/30 10:11:04;;;;;;;3.00;1.20;;;;;;;;;;5051647;28;20033;-73
2022/09/30 10:13:30;;;;;;;5.63;1.10;;;;;;;;;;5051791;28;20029;-74
2022/09/30 10:15:58;;;;;;;4.93;1.00;;;;;;;;;;5051450;28;20066;-74
2022/09/30 10:18:31;;;;;;;6.63;1.10;;;;;;;;;;5051427;28;20032;-73
2022/09/30 10:21:03;;;;;;;5.53;1.10;;;;;;;;;;5033715;28;20017;-75
2022/09/30 10:23:32;;;;;;;2.72;0.90;;;;;;;;;;5051594;28;20033;-74
2022/09/30 10:25:58;;;;;;;2.88;1.23;;;;;;;;;;5051273;28;20117;-73
2022/09/30 10:28:27;;;;;;;5.90;1.00;;;;;;;;;;5051416;28;20108;-74
2022/09/30 10:30:56;;;;;;;3.08;0.82;;;;;;;;;;5051344;28;20107;-75
2022/09/30 10:33:27;;;;;;;4.57;0.85;;;;;;;;;;5051346;28;20414;-78
2022/09/30 10:36:01;;;;;;;3.45;1.20;;;;;;;;;;5051109;28;20104;-77
2022/09/30 10:38:28;;;;;;;2.60;1.05;;;;;;;;;;5051026;28;20013;-77
2022/09/30 10:40:54;;;;;;;5.30;0.80;;;;;;;;;;5050826;28;20564;-75
2022/09/30 10:43:24;;;;;;;2.65;0.80;;;;;;;;;;5051346;28;20025;-78
2022/09/30 10:45:51;;;;;;;2.13;0.90;;;;;;;;;;5051347;28;20032;-77
2022/09/30 10:48:21;;;;;;;2.70;0.82;;;;;;;;;;5051085;28;20071;-79
2022/09/30 10:50:52;;;;;;;4.97;0.93;;;;;;;;;;5051316;28;20031;-77
2022/09/30 10:53:20;;;;;;;;;;;;;;;;;;5033987;28;20021;-77
2022/09/30 10:55:46;;;;;;;2.03;0.70;;;;;;;;;;5050439;28;19913;-77
2022/09/30 10:58:48;;;;;;;2.40;0.90;;;;;;;;;;5049740;28;20108;-78
2022/09/30 11:01:24;;;;;;;4.25;0.93;;;;;;;;;;5050929;28;20485;-77
2022/09/30 11:03:53;;;;;;;2.83;0.82;;;;;;;;;;5051591;28;20492;-77
2022/09/30 11:06:21;;;;;;;4.07;0.88;;;;;;;;;;5050821;28;20426;-76
2022/09/30 11:08:56;;;;;;;3.28;0.70;;;;;;;;;;5051015;28;20436;-77
2022/09/30 11:11:44;;;;;;;3.58;0.77;;;;;;;;;;5050645;28;20477;-76
2022/09/30 11:14:52;;;;;;;3.95;0.77;;;;;;;;;;5032527;28;20427;-75
2022/09/30 11:17:37;;;;;;;4.38;0.75;;;;;;;;;;4954181;28;20090;-77
2022/09/30 11:20:26;;;;;;;3.03;0.70;;;;;;;;;;5050836;28;20396;-77
2022/09/30 11:23:17;;;;;;;3.33;0.90;;;;;;;;;;5033329;28;20039;-76
2022/09/30 11:25:56;;;;;;;3.42;0.80;;;;;;;;;;5050151;28;20108;-77
2022/09/30 11:28:27;;;;;;;3.40;0.70;;;;;;;;;;5050155;28;20025;-76
2022/09/30 11:31:10;;;;;;;2.60;0.90;;;;;;;;;;5049996;28;20588;-76
2022/09/30 11:33:47;;;;;;;2.05;0.73;;;;;;;;;;5050311;28;20393;-76
2022/09/30 11:36:32;;;;;;;2.42;0.70;;;;;;;;;;5032282;28;20056;-77
2022/09/30 11:39:17;;;;;;;3.55;0.80;;;;;;;;;;5032572;28;20043;-75
2022/09/30 11:41:50;;;;;;;2.50;0.60;;;;;;;;;;5049764;28;20065;-78
2022/09/30 11:44:34;;;;;;;4.50;1.00;;;;;;;;;;5050103;28;20035;-75
2022/09/30 11:47:41;;;;;;;2.55;0.70;;;;;;;;;;5031468;28;20606;-79
2022/09/30 11:50:13;;;;;;;3.92;0.82;;;;;;;;;;4949602;29;20036;-77
2022/09/30 11:52:52;;;;;;;2.30;0.80;;;;;;;;;;4949429;29;20050;-75
2022/09/30 11:55:35;;;;;;;2.70;0.88;;;;;;;;;;5009248;28;20061;-78
2022/09/30 11:58:07;;;;;;;4.47;0.70;;;;;;;;;;5050140;28;20029;-78
2022/09/30 12:00:38;;;;;;;1.88;0.60;;;;;;;;;;5049948;28;20496;-75
2022/09/30 12:03:13;;;;;;;3.25;0.70;;;;;;;;;;5049722;28;20024;-76
2022/09/30 12:05:56;;;;;;;2.30;0.65;;;;;;;;;;5031825;28;20063;-76
2022/09/30 12:08:28;;;;;;;1.55;0.50;;;;;;;;;;5050042;28;20035;-76
2022/09/30 12:10:55;;;;;;;2.67;0.70;;;;;;;;;;5054550;28;20029;-74
2022/09/30 12:13:28;;;;;;;3.17;0.88;;;;;;;;;;5054211;28;20033;-75
2022/09/30 12:15:56;;;;;;;4.13;0.65;;;;;;;;;;5054119;28;20496;-74
2022/09/30 12:18:29;;;;;;;3.42;0.75;;;;;;;;;;5035722;28;20050;-74
2022/09/30 12:21:00;;;;;;;4.22;0.52;;;;;;;;;;5053555;28;20025;-73
2022/09/30 12:23:29;;;;;;;1.92;0.60;;;;;;;;;;5054030;28;20484;-74
2022/09/30 12:25:59;;;;;;;1.33;0.70;;;;;;;;;;5053759;28;20035;-75
2022/09/30 12:32:11;;;;;;;1.67;0.60;;;;;;;;;;5053413;28;20048;-76
2022/09/30 12:34:48;;;;;;;2.40;0.60;;;;;;;;;;5035844;28;20611;-75
2022/09/30 12:37:14;;;;;;;1.27;0.50;;;;;;;;;;5053356;28;20083;-75
2022/09/30 12:39:58;;;;;;;2.35;0.47;;;;;;;;;;5035391;28;20053;-77
2022/09/30 12:42:42;;;;;;;2.08;0.60;;;;;;;;;;5053123;28;20503;-75
2022/09/30 12:45:07;;;;;;;3.65;0.60;;;;;;;;;;5053775;28;20040;-75
2022/09/30 12:47:46;;;;;;;1.35;0.70;;;;;;;;;;5035037;28;20025;-74
2022/09/30 12:50:18;;;;;;;2.58;0.60;;;;;;;;;;5053487;28;20025;-74
2022/09/30 12:52:44;;;;;;;2.38;0.68;;;;;;;;;;5035217;28;20490;-75
2022/09/30 12:55:24;;;;;;;3.05;0.60;;;;;;;;;;5053218;28;20544;-74
2022/09/30 12:57:51;;;;;;;2.78;0.60;;;;;;;;;;5034840;28;20025;-75
2022/09/30 13:00:20;;;;;;;1.77;0.63;;;;;;;;;;5053098;28;20029;-75
2022/09/30 13:02:52;;;;;;;1.67;0.47;;;;;;;;;;5052785;28;20175;-74
2022/09/30 13:05:45;;;;;;;1.35;0.50;;;;;;;;;;5053097;28;20025;-74
2022/09/30 13:08:20;;;;;;;2.75;0.50;;;;;;;;;;5052764;28;20036;-75
2022/09/30 13:10:51;;;;;;;1.23;0.60;;;;;;;;;;5052955;28;20028;-74
2022/09/30 13:13:31;;;;;;;2.60;0.50;;;;;;;;;;5034984;28;20222;-73
2022/09/30 13:16:04;;;;;;;3.70;0.60;;;;;;;;;;5052634;28;20025;-74
2022/09/30 13:18:30;;;;;;;2.38;0.50;;;;;;;;;;5052367;28;20029;-74
2022/09/30 13:21:16;;;;;;;3.10;0.60;;;;;;;;;;5051681;28;20553;-73
2022/09/30 13:23:45;;;;;;;3.63;0.50;;;;;;;;;;5052729;28;20575;-74
2022/09/30 13:26:23;;;;;;;2.17;0.60;;;;;;;;;;5052828;28;20028;-74
2022/09/30 13:28:50;;;;;;;2.25;0.50;;;;;;;;;;5052358;28;20036;-74
2022/09/30 13:31:21;;;;;;;1.48;0.60;;;;;;;;;;5052532;28;20040;-77
2022/09/30 13:34:01;;;;;;;1.45;0.57;;;;;;;;;;5052338;28;20054;-75
2022/09/30 13:36:31;;;;;;;1.20;0.40;;;;;;;;;;5052372;28;20029;-76
2022/09/30 13:39:24;;;;;;;1.83;0.52;;;;;;;;;;5052138;28;20082;-74
2022/09/30 13:41:59;;;;;;;2.40;0.50;;;;;;;;;;5052270;28;20037;-73
2022/09/30 13:44:24;;;;;;;0.70;0.45;;;;;;;;;;5052276;28;20017;-74
2022/09/30 13:46:54;;;;;;;2.13;0.60;;;;;;;;;;5051970;28;20028;-74
2022/09/30 13:49:43;;;;;;;1.05;0.40;;;;;;;;;;5051823;28;20029;-73
2022/09/30 13:52:33;;;;;;;1.67;0.70;;;;;;;;;;5051868;28;20021;-75
2022/09/30 13:55:06;;;;;;;4.78;0.80;;;;;;;;;;5052185;28;20029;-74
2022/09/30 13:57:57;;;;;;;2.33;0.57;;;;;;;;;;5051729;28;20021;-73
2022/09/30 14:00:46;;;;;;;1.95;0.55;;;;;;;;;;5052024;28;20036;-73
2022/09/30 14:03:24;;;;;;;4.85;0.63;;;;;;;;;;5051637;28;20159;-73
2022/09/30 14:05:52;;;;;;;1.98;0.47;;;;;;;;;;5051779;28;20063;-75
2022/09/30 14:08:31;;;;;;;1.40;0.43;;;;;;;;;;5051479;28;20035;-75
2022/09/30 14:11:41;;;;;;;0.50;0.40;;;;;;;;;;5051682;28;20060;-77
2022/09/30 14:14:16;;;;;;;1.58;0.52;;;;;;;;;;5033550;28;20036;-76
2022/09/30 14:17:04;;;;;;;2.63;0.50;;;;;;;;;;5051873;28;20518;-79
2022/09/30 14:19:59;;;;;;;1.85;0.30;;;;;;;;;;5051352;28;20388;-74
2022/09/30 14:22:28;;;;;;;2.08;0.40;;;;;;;;;;5051364;28;20029;-75
2022/09/30 14:24:54;;;;;;;0.98;0.43;;;;;;;;;;5051466;28;20033;-75
2022/09/30 14:27:28;;;;;;;2.65;0.50;;;;;;;;;;5051282;28;20122;-74
2022/09/30 14:30:05;;;;;;;1.80;0.60;;;;;;;;;;5051494;28;20029;-73
2022/09/30 14:32:43;;;;;;;1.58;0.50;;;;;;;;;;5050952;28;20031;-73
2022/09/30 14:35:14;;;;;;;2.58;0.65;;;;;;;;;;5051529;28;20704;-74
2022/09/30 14:37:52;;;;;;;2.47;0.70;;;;;;;;;;5051000;28;20032;-73
2022/09/30 14:40:28;;;;;;;2.55;0.55;;;;;;;;;;5050976;28;20080;-75
2022/09/30 14:43:01;;;;;;;1.73;0.38;;;;;;;;;;5050976;28;20464;-74
2022/09/30 14:45:30;;;;;;;1.63;0.50;;;;;;;;;;5051161;28;20028;-74
2022/09/30 14:48:01;;;;;;;1.65;0.52;;;;;;;;;;5050737;28;20083;-73
2022/09/30 14:50:33;;;;;;;1.77;0.50;;;;;;;;;;5051125;28;20476;-75
2022/09/30 14:53:01;;;;;;;2.00;0.50;;;;;;;;;;5051050;28;20025;-77
2022/09/30 14:55:31;;;;;;;2.33;0.40;;;;;;;;;;5051045;28;20036;-76
2022/09/30 14:58:33;;;;;;;1.83;0.50;;;;;;;;;;5050692;28;20036;-73
2022/09/30 15:00:58;;;;;;;1.08;0.43;;;;;;;;;;5050950;28;20028;-76
2022/09/30 15:03:25;;;;;;;2.17;0.55;;;;;;;;;;5050463;28;20083;-77
2022/09/30 15:05:51;;;;;;;0.40;0.30;;;;;;;;;;5033080;28;20124;-76
2022/09/30 15:08:19;;;;;;;2.38;0.40;;;;;;;;;;5050490;28;20108;-78
2022/09/30 15:10:47;;;;;;;2.00;0.60;;;;;;;;;;5050757;28;20035;-76
2022/09/30 15:13:14;;;;;;;2.03;0.50;;;;;;;;;;5050319;28;20482;-77
2022/09/30 15:15:39;;;;;;;2.83;0.68;;;;;;;;;;5050594;28;20037;-76
2022/09/30 15:18:30;;;;;;;1.58;0.50;;;;;;;;;;5049967;28;20025;-76
2022/09/30 15:20:58;;;;;;;;;;;;;;;;;;5050896;28;20029;-78